Time;durP1;ratioP1;P1;durP2;ratioP2;P2;SDS_P1;SDS_P2;PMS_P1;PMS_P2;Temp;Humidity;BMP_temperature;BMP_pressure;BME280_temperature;BME280_humidity;BME280_pressure;Samples;Min_cycle;Max_cycle;Signal;HPM_P1;HPM_P2
2024/01/28 00:01:33;;;;;;;6.57;2.80;;;3.70;74.30;;;;;;5034672;28;20025;-66
2024/01/28 00:03:58;;;;;;;4.78;2.22;;;3.70;74.30;;;;;;5032081;28;20114;-66
2024/01/28 00:06:24;;;;;;;8.10;1.90;;;3.70;74.40;;;;;;5032945;28;20064;-66
2024/01/28 00:08:50;;;;;;;5.20;2.58;;;3.70;74.30;;;;;;5033533;28;20031;-66
2024/01/28 00:11:15;;;;;;;3.47;1.35;;;3.70;74.30;;;;;;5050951;28;20373;-66
2024/01/28 00:13:41;;;;;;;5.70;2.70;;;3.60;74.20;;;;;;5036152;28;20504;-66
2024/01/28 00:16:14;;;;;;;2.72;1.75;;;3.60;74.20;;;;;;5042600;28;20469;-66
2024/01/28 00:18:39;;;;;;;6.78;2.58;;;3.60;74.20;;;;;;5045144;28;20024;-66
2024/01/28 00:21:05;;;;;;;2.55;2.13;;;3.60;74.20;;;;;;5043089;28;20033;-66
2024/01/28 00:23:31;;;;;;;3.45;2.00;;;3.60;74.30;;;;;;5031366;28;20069;-66
2024/01/28 00:25:57;;;;;;;2.65;1.80;;;3.60;74.40;;;;;;5038578;28;20253;-66
2024/01/28 00:28:23;;;;;;;6.65;2.70;;;3.60;74.40;;;;;;5028372;28;20743;-66
2024/01/28 00:30:49;;;;;;;2.53;1.48;;;3.60;74.40;;;;;;5028705;28;20014;-66
2024/01/28 00:33:14;;;;;;;4.30;2.60;;;3.60;74.30;;;;;;5026483;28;20449;-66
2024/01/28 00:35:40;;;;;;;4.70;2.72;;;3.60;74.20;;;;;;5029376;28;20384;-66
2024/01/28 00:38:06;;;;;;;4.22;2.22;;;3.60;74.20;;;;;;5028506;28;20450;-66
2024/01/28 00:40:32;;;;;;;8.25;2.92;;;3.60;74.30;;;;;;5027465;28;20052;-66
2024/01/28 00:42:58;;;;;;;4.72;2.58;;;3.60;74.40;;;;;;5027650;28;20041;-66
2024/01/28 00:45:23;;;;;;;4.25;2.28;;;3.60;74.50;;;;;;5028988;28;20033;-66
2024/01/28 00:47:49;;;;;;;3.42;1.98;;;3.50;74.50;;;;;;5030335;28;20048;-66
2024/01/28 00:50:15;;;;;;;3.38;2.35;;;3.50;74.50;;;;;;5030452;28;20040;-66
2024/01/28 00:52:41;;;;;;;11.73;3.05;;;3.50;74.50;;;;;;5033628;28;20033;-66
2024/01/28 00:55:08;;;;;;;4.53;1.92;;;3.50;74.60;;;;;;5035706;28;20025;-66
2024/01/28 00:57:34;;;;;;;4.38;2.92;;;3.50;74.60;;;;;;5038008;28;20021;-66
2024/01/28 01:00:00;;;;;;;4.30;2.47;;;3.50;74.60;;;;;;5071606;28;20033;-66
2024/01/28 01:02:26;;;;;;;5.18;2.67;;;3.50;74.60;;;;;;5037715;28;20492;-66
2024/01/28 01:04:52;;;;;;;3.80;2.08;;;3.40;74.50;;;;;;5039345;28;20036;-66
2024/01/28 01:07:17;;;;;;;4.88;2.80;;;3.40;74.60;;;;;;5039088;28;20120;-69
2024/01/28 01:09:43;;;;;;;5.13;2.78;;;3.40;74.70;;;;;;5038144;28;20112;-69
2024/01/28 01:12:09;;;;;;;5.75;2.35;;;3.40;74.70;;;;;;5034697;28;20028;-69
2024/01/28 01:14:37;;;;;;;11.85;2.92;;;3.40;74.80;;;;;;5037534;28;20405;-66
2024/01/28 01:17:04;;;;;;;7.50;2.45;;;3.40;74.90;;;;;;5038940;28;20037;-66
2024/01/28 01:19:29;;;;;;;4.72;2.45;;;3.40;74.90;;;;;;5039587;28;20099;-66
2024/01/28 01:21:57;;;;;;;2.88;1.90;;;3.40;74.90;;;;;;5032518;28;20061;-66
2024/01/28 01:24:25;;;;;;;3.28;1.92;;;3.40;75.00;;;;;;5028554;28;20053;-66
2024/01/28 01:26:51;;;;;;;2.22;1.85;;;3.40;74.90;;;;;;5030982;28;20134;-66
2024/01/28 01:29:17;;;;;;;3.63;2.63;;;3.30;74.90;;;;;;5037562;28;20037;-66
2024/01/28 01:31:43;;;;;;;7.20;2.65;;;3.30;75.00;;;;;;5037890;28;20021;-66
2024/01/28 01:34:08;;;;;;;4.18;2.42;;;3.30;75.00;;;;;;5039661;28;20025;-68
2024/01/28 01:36:34;;;;;;;7.53;2.25;;;3.30;75.10;;;;;;5043949;28;20997;-66
2024/01/28 01:39:00;;;;;;;4.15;2.47;;;3.20;75.10;;;;;;5039327;28;20025;-66
2024/01/28 01:41:25;;;;;;;3.70;2.42;;;3.20;75.00;;;;;;5035648;28;20063;-66
2024/01/28 01:43:52;;;;;;;4.22;1.83;;;3.20;75.10;;;;;;5035479;28;20503;-68
2024/01/28 01:46:20;;;;;;;3.70;1.95;;;3.20;75.10;;;;;;5037908;28;20355;-66
2024/01/28 01:48:47;;;;;;;3.97;2.33;;;3.20;75.20;;;;;;5036174;28;20454;-66
2024/01/28 01:51:13;;;;;;;3.17;2.22;;;3.20;75.10;;;;;;5034359;28;20053;-66
2024/01/28 01:53:40;;;;;;;2.67;2.20;;;3.20;75.20;;;;;;5017007;28;20034;-68
2024/01/28 01:56:06;;;;;;;2.70;1.95;;;3.20;75.20;;;;;;5029710;28;20029;-66
2024/01/28 01:58:32;;;;;;;2.05;1.55;;;3.20;75.20;;;;;;5037776;28;20037;-66
2024/01/28 02:00:59;;;;;;;6.57;3.00;;;3.20;75.10;;;;;;5034797;28;20393;-66
2024/01/28 02:03:27;;;;;;;2.10;1.90;;;3.20;75.20;;;;;;5028366;28;20449;-66
2024/01/28 02:05:53;;;;;;;4.90;2.20;;;3.10;75.20;;;;;;5029634;28;20057;-66
2024/01/28 02:08:19;;;;;;;3.33;1.50;;;3.10;75.10;;;;;;5032914;28;20080;-66
2024/01/28 02:10:45;;;;;;;6.05;2.80;;;3.10;75.20;;;;;;5036779;28;20021;-66
2024/01/28 02:13:11;;;;;;;4.00;2.42;;;3.10;75.20;;;;;;5033918;28;20030;-69
2024/01/28 02:15:37;;;;;;;3.13;1.92;;;3.10;75.30;;;;;;5040491;28;20128;-68
2024/01/28 02:18:04;;;;;;;2.70;2.05;;;3.10;75.30;;;;;;5037585;28;20105;-69
2024/01/28 02:20:30;;;;;;;3.28;2.03;;;3.10;75.30;;;;;;5027592;28;20080;-69
2024/01/28 02:22:56;;;;;;;5.75;2.40;;;3.00;75.30;;;;;;5037707;28;20520;-66
2024/01/28 02:25:22;;;;;;;4.00;2.28;;;3.00;75.30;;;;;;5032140;28;20107;-66
2024/01/28 02:27:48;;;;;;;4.03;2.22;;;3.00;75.30;;;;;;5028764;28;20468;-66
2024/01/28 02:30:14;;;;;;;4.03;2.63;;;3.00;75.30;;;;;;5029293;28;20022;-69
2024/01/28 02:32:50;;;;;;;3.25;1.65;;;2.90;75.30;;;;;;5033920;28;20021;-66
2024/01/28 02:35:17;;;;;;;6.10;3.03;;;2.90;75.30;;;;;;5033317;28;21059;-66
2024/01/28 02:37:43;;;;;;;3.53;2.42;;;2.90;75.40;;;;;;5025347;28;20044;-66
2024/01/28 02:40:09;;;;;;;7.78;2.83;;;2.90;75.40;;;;;;5036073;28;20037;-69
2024/01/28 02:42:35;;;;;;;11.73;3.05;;;2.90;75.40;;;;;;5066789;28;20044;-67
2024/01/28 02:45:01;;;;;;;10.98;2.53;;;2.90;75.40;;;;;;5041994;28;20123;-67
2024/01/28 02:47:27;;;;;;;4.18;1.73;;;2.90;75.40;;;;;;5034140;28;20067;-67
2024/01/28 02:49:53;;;;;;;3.08;2.05;;;2.90;75.50;;;;;;5032230;28;20465;-68
2024/01/28 02:52:19;;;;;;;5.22;1.75;;;2.80;75.40;;;;;;5023850;28;20041;-68
2024/01/28 02:54:44;;;;;;;16.67;3.05;;;2.80;75.50;;;;;;5035685;28;20053;-68
2024/01/28 02:57:10;;;;;;;3.65;2.30;;;2.80;75.40;;;;;;5034434;28;20057;-65
2024/01/28 02:59:36;;;;;;;3.65;2.20;;;2.80;75.50;;;;;;5040940;28;20423;-68
2024/01/28 03:02:03;;;;;;;2.78;1.75;;;2.80;75.50;;;;;;5035845;28;20393;-68
2024/01/28 03:04:28;;;;;;;2.65;1.92;;;2.80;75.50;;;;;;5037828;28;20550;-68
2024/01/28 03:06:54;;;;;;;4.57;2.42;;;2.70;75.50;;;;;;5039683;28;20245;-68
2024/01/28 03:09:20;;;;;;;2.72;2.05;;;2.70;75.50;;;;;;5037490;28;20489;-68
2024/01/28 03:11:46;;;;;;;5.63;2.75;;;2.70;75.60;;;;;;5040494;28;20029;-68
2024/01/28 03:14:12;;;;;;;4.07;2.03;;;2.70;75.60;;;;;;5040503;28;20029;-64
2024/01/28 03:16:38;;;;;;;2.78;1.63;;;2.70;75.60;;;;;;5040998;28;20373;-65
2024/01/28 03:19:03;;;;;;;5.63;2.80;;;2.70;75.60;;;;;;5030640;28;20041;-65
2024/01/28 03:21:30;;;;;;;2.40;1.77;;;2.70;75.60;;;;;;5030366;28;20040;-65
2024/01/28 03:23:56;;;;;;;5.93;2.05;;;2.70;75.60;;;;;;5031884;28;20400;-65
2024/01/28 03:26:22;;;;;;;3.53;2.15;;;2.70;75.60;;;;;;5038083;28;20049;-64
2024/01/28 03:28:48;;;;;;;2.28;2.08;;;2.70;75.50;;;;;;5037417;28;20037;-66
2024/01/28 03:31:14;;;;;;;5.45;2.10;;;2.60;75.60;;;;;;5036719;28;20384;-65
2024/01/28 03:33:40;;;;;;;2.30;1.52;;;2.60;75.60;;;;;;5035639;28;20025;-65
2024/01/28 03:36:06;;;;;;;3.75;1.63;;;2.60;75.60;;;;;;5037381;28;20037;-65
2024/01/28 03:38:32;;;;;;;5.13;2.05;;;2.60;75.60;;;;;;5034790;28;20030;-65
2024/01/28 03:40:58;;;;;;;4.78;2.13;;;2.60;75.70;;;;;;5032590;28;20059;-65
2024/01/28 03:43:23;;;;;;;3.90;2.25;;;2.50;75.70;;;;;;5029157;28;20110;-65
2024/01/28 03:45:49;;;;;;;2.65;1.75;;;2.60;75.90;;;;;;5037622;28;20090;-65
2024/01/28 03:48:15;;;;;;;4.97;2.53;;;2.60;75.90;;;;;;5035349;28;20025;-65
2024/01/28 03:50:40;;;;;;;4.82;2.25;;;2.60;75.90;;;;;;5037896;28;20049;-65
2024/01/28 03:53:06;;;;;;;5.80;2.42;;;2.60;75.90;;;;;;5029885;28;20061;-65
2024/01/28 03:55:32;;;;;;;3.90;1.80;;;2.60;75.80;;;;;;5041776;28;20405;-65
2024/01/28 03:57:58;;;;;;;8.23;2.38;;;2.60;75.90;;;;;;5039213;28;20029;-65
2024/01/28 04:00:28;;;;;;;2.55;1.85;;;2.50;75.90;;;;;;5036855;28;20036;-65
2024/01/28 04:02:54;;;;;;;4.07;2.08;;;2.50;75.90;;;;;;5013565;28;20022;-65
2024/01/28 04:05:20;;;;;;;2.65;1.80;;;2.50;75.90;;;;;;5033739;28;20496;-65
2024/01/28 04:07:46;;;;;;;2.90;1.98;;;2.50;75.90;;;;;;5011327;28;20053;-65
2024/01/28 04:10:15;;;;;;;2.95;2.13;;;2.50;75.90;;;;;;5036067;28;20551;-65
2024/01/28 04:12:41;;;;;;;5.05;1.83;;;2.50;76.00;;;;;;5031123;28;20036;-65
2024/01/28 04:15:07;;;;;;;3.58;1.92;;;2.40;75.90;;;;;;5037328;28;20029;-65
2024/01/28 04:17:33;;;;;;;7.43;2.05;;;2.50;76.00;;;;;;5037128;28;20061;-65
2024/01/28 04:19:58;;;;;;;4.50;2.13;;;2.40;76.00;;;;;;5040780;28;20033;-65
2024/01/28 04:22:24;;;;;;;4.90;2.35;;;2.40;75.90;;;;;;5041171;28;20551;-65
2024/01/28 04:24:50;;;;;;;7.07;2.50;;;2.40;76.00;;;;;;5038177;28;20025;-65
2024/01/28 04:27:16;;;;;;;3.55;2.08;;;2.40;76.00;;;;;;5041005;28;20029;-65
2024/01/28 04:29:41;;;;;;;2.80;1.70;;;2.40;76.00;;;;;;5033461;28;20045;-69
2024/01/28 04:32:10;;;;;;;5.45;3.00;;;2.40;76.00;;;;;;5041683;28;20355;-65
2024/01/28 04:34:36;;;;;;;5.43;2.00;;;2.40;76.00;;;;;;5043158;28;20048;-65
2024/01/28 04:37:02;;;;;;;4.30;2.30;;;2.30;76.00;;;;;;5040041;28;20056;-65
2024/01/28 04:39:28;;;;;;;5.47;2.40;;;2.40;76.10;;;;;;5039434;28;20064;-69
2024/01/28 04:41:53;;;;;;;3.03;2.35;;;2.30;76.10;;;;;;5031852;28;20053;-69
2024/01/28 04:44:20;;;;;;;4.00;1.83;;;2.30;76.10;;;;;;5045876;28;20025;-66
2024/01/28 04:46:46;;;;;;;6.20;1.90;;;2.30;76.10;;;;;;5034863;28;20480;-66
2024/01/28 04:49:12;;;;;;;4.97;2.58;;;2.30;76.10;;;;;;5040806;28;20025;-65
2024/01/28 04:51:38;;;;;;;4.85;2.67;;;2.30;76.10;;;;;;5044516;28;20029;-65
2024/01/28 04:54:03;;;;;;;6.13;2.40;;;2.30;76.10;;;;;;5039027;28;20455;-65
2024/01/28 04:56:29;;;;;;;2.97;1.63;;;2.30;76.20;;;;;;5037953;28;20550;-65
2024/01/28 04:58:55;;;;;;;2.60;1.73;;;2.30;76.20;;;;;;5030113;28;20022;-69
2024/01/28 05:01:21;;;;;;;5.35;1.95;;;2.30;76.20;;;;;;5032059;28;20041;-69
2024/01/28 05:03:47;;;;;;;3.13;2.22;;;2.30;76.20;;;;;;5035446;28;20423;-69
2024/01/28 05:06:13;;;;;;;3.85;2.17;;;2.30;76.30;;;;;;5031261;28;20381;-65
2024/01/28 05:08:38;;;;;;;3.83;1.92;;;2.30;76.20;;;;;;5030025;28;20022;-65
2024/01/28 05:11:04;;;;;;;5.25;2.45;;;2.30;76.30;;;;;;5036800;28;20040;-65
2024/01/28 05:13:30;;;;;;;3.10;2.20;;;2.30;76.30;;;;;;5030393;28;20060;-65
2024/01/28 05:15:56;;;;;;;1.88;1.67;;;2.30;76.30;;;;;;5034399;28;20388;-65
2024/01/28 05:18:22;;;;;;;2.97;2.30;;;2.30;76.30;;;;;;5036327;28;20017;-65
2024/01/28 05:20:48;;;;;;;2.67;1.58;;;2.30;76.30;;;;;;5029452;28;20022;-65
2024/01/28 05:23:14;;;;;;;3.90;1.90;;;2.30;76.30;;;;;;5035895;28;20029;-69
2024/01/28 05:25:40;;;;;;;5.03;2.17;;;2.20;76.30;;;;;;5032057;28;20408;-69
2024/01/28 05:28:08;;;;;;;3.25;1.98;;;2.20;76.30;;;;;;5031561;28;20052;-69
2024/01/28 05:30:33;;;;;;;4.60;2.22;;;2.20;76.90;;;;;;5030834;28;20025;-69
2024/01/28 05:32:59;;;;;;;3.95;2.13;;;2.20;76.30;;;;;;5032564;28;20405;-65
2024/01/28 05:35:25;;;;;;;4.13;1.98;;;2.20;76.40;;;;;;5038374;28;20037;-65
2024/01/28 05:37:51;;;;;;;1.83;1.42;;;2.30;76.50;;;;;;5043578;28;20040;-65
2024/01/28 05:40:18;;;;;;;5.75;2.15;;;2.20;76.40;;;;;;5035274;28;20033;-65
2024/01/28 05:42:44;;;;;;;2.88;1.67;;;2.20;76.40;;;;;;5039250;28;20032;-65
2024/01/28 05:45:10;;;;;;;4.13;2.40;;;2.20;76.40;;;;;;5036201;28;20080;-65
2024/01/28 05:47:35;;;;;;;4.13;2.28;;;2.20;76.40;;;;;;5039597;28;20036;-65
2024/01/28 05:50:02;;;;;;;2.08;1.50;;;2.20;76.40;;;;;;5035295;28;20543;-65
2024/01/28 05:52:28;;;;;;;4.22;2.30;;;2.20;76.50;;;;;;5032029;28;20029;-65
2024/01/28 05:54:53;;;;;;;3.85;2.33;;;2.20;76.50;;;;;;5036672;28;20021;-65
2024/01/28 05:57:19;;;;;;;7.35;2.10;;;2.20;76.50;;;;;;5037934;28;20030;-69
2024/01/28 05:59:45;;;;;;;4.63;2.10;;;2.20;76.50;;;;;;5039253;28;20094;-69
2024/01/28 06:02:10;;;;;;;4.53;2.05;;;2.20;76.50;;;;;;5035042;28;20076;-69
2024/01/28 06:04:37;;;;;;;6.43;2.45;;;2.20;76.60;;;;;;5034521;28;20032;-69
2024/01/28 06:07:02;;;;;;;8.20;2.28;;;2.20;76.60;;;;;;5033450;28;20034;-69
2024/01/28 06:09:28;;;;;;;2.33;2.13;;;2.20;76.60;;;;;;5038872;28;20044;-65
2024/01/28 06:11:54;;;;;;;2.83;1.85;;;2.20;76.60;;;;;;5039825;28;20033;-65
2024/01/28 06:14:19;;;;;;;2.42;1.20;;;2.20;76.60;;;;;;5040014;28;20025;-69
2024/01/28 06:16:45;;;;;;;1.88;1.65;;;2.10;76.50;;;;;;5042685;28;20032;-65
2024/01/28 06:19:10;;;;;;;3.88;2.15;;;2.10;76.60;;;;;;5040135;28;20135;-65
2024/01/28 06:21:36;;;;;;;3.60;2.33;;;2.10;76.60;;;;;;5046245;28;20040;-69
2024/01/28 06:24:02;;;;;;;4.78;2.28;;;2.10;76.60;;;;;;5033295;28;20401;-69
2024/01/28 06:26:28;;;;;;;3.03;1.70;;;2.00;76.60;;;;;;5034050;28;20136;-69
2024/01/28 06:28:54;;;;;;;10.65;2.47;;;2.00;76.60;;;;;;5034380;28;20026;-69
2024/01/28 06:31:20;;;;;;;6.88;2.33;;;2.00;76.60;;;;;;5016886;28;20025;-69
2024/01/28 06:33:46;;;;;;;3.65;1.95;;;2.00;76.60;;;;;;5045565;28;20526;-69
2024/01/28 06:36:30;;;;;;;3.53;1.88;;;2.00;76.60;;;;;;5041121;28;20112;-65
2024/01/28 06:38:57;;;;;;;2.92;2.03;;;2.00;76.60;;;;;;5037599;28;20037;-69
2024/01/28 06:41:23;;;;;;;4.65;1.83;;;2.00;76.70;;;;;;5034188;28;20033;-69
2024/01/28 06:43:48;;;;;;;4.15;2.53;;;2.00;76.80;;;;;;5039040;28;20132;-69
2024/01/28 06:46:16;;;;;;;4.65;1.98;;;2.00;76.70;;;;;;5039262;28;20068;-65
2024/01/28 06:48:41;;;;;;;2.78;2.20;;;2.00;76.80;;;;;;5036295;28;20035;-65
2024/01/28 06:51:09;;;;;;;2.08;1.30;;;1.90;76.70;;;;;;5034857;28;20049;-69
2024/01/28 06:53:36;;;;;;;5.82;2.60;;;1.90;76.70;;;;;;5033789;28;20148;-69
2024/01/28 06:56:02;;;;;;;2.35;1.75;;;1.90;76.70;;;;;;5036775;28;20035;-69
2024/01/28 06:58:27;;;;;;;11.70;1.52;;;1.90;76.80;;;;;;5037625;28;20037;-65
2024/01/28 07:00:53;;;;;;;2.55;1.73;;;1.90;76.80;;;;;;5030929;28;20078;-65
2024/01/28 07:03:19;;;;;;;2.30;1.50;;;1.90;76.80;;;;;;5036608;28;20041;-69
2024/01/28 07:05:46;;;;;;;6.95;2.72;;;1.90;76.80;;;;;;5077122;28;20080;-69
2024/01/28 07:08:11;;;;;;;4.60;2.25;;;1.90;76.80;;;;;;5033652;28;20376;-65
2024/01/28 07:10:37;;;;;;;7.93;2.05;;;1.90;76.90;;;;;;5030126;28;20091;-65
2024/01/28 07:13:03;;;;;;;4.90;2.45;;;1.90;76.90;;;;;;5057305;28;21470;-65
2024/01/28 07:15:30;;;;;;;2.70;1.73;;;1.90;76.90;;;;;;5030870;28;20374;-65
2024/01/28 07:17:55;;;;;;;4.03;2.33;;;1.90;76.90;;;;;;5032568;28;20033;-65
2024/01/28 07:20:21;;;;;;;12.27;1.83;;;1.90;76.90;;;;;;5031773;28;20037;-65
2024/01/28 07:22:47;;;;;;;2.13;1.85;;;1.90;77.00;;;;;;5033349;28;20041;-65
2024/01/28 07:25:13;;;;;;;2.95;1.77;;;1.90;76.90;;;;;;5031735;28;20121;-65
2024/01/28 07:27:39;;;;;;;4.57;2.03;;;1.90;76.90;;;;;;5031657;28;20026;-65
2024/01/28 07:30:06;;;;;;;5.82;2.53;;;1.90;76.90;;;;;;5032630;28;20091;-65
2024/01/28 07:32:32;;;;;;;2.70;1.88;;;1.90;77.00;;;;;;5029096;28;20540;-65
2024/01/28 07:34:58;;;;;;;3.53;2.38;;;1.90;77.00;;;;;;5032530;28;20116;-65
2024/01/28 07:37:24;;;;;;;2.35;1.88;;;2.00;77.10;;;;;;5030536;28;20029;-65
2024/01/28 07:39:49;;;;;;;4.45;2.13;;;2.00;77.00;;;;;;5032588;28;20448;-65
2024/01/28 07:42:15;;;;;;;2.55;1.52;;;2.00;77.00;;;;;;5032507;28;20029;-64
2024/01/28 07:44:40;;;;;;;4.10;2.10;;;2.10;77.00;;;;;;5037092;28;20069;-64
2024/01/28 07:47:06;;;;;;;2.80;1.60;;;2.10;77.00;;;;;;5028984;28;20029;-65
2024/01/28 07:49:32;;;;;;;3.30;1.58;;;2.10;76.90;;;;;;5032491;28;20395;-65
2024/01/28 07:51:57;;;;;;;2.00;1.25;;;2.20;76.90;;;;;;5029722;28;20026;-65
2024/01/28 07:54:23;;;;;;;2.65;1.42;;;2.20;76.90;;;;;;5032970;28;20030;-68
2024/01/28 07:56:49;;;;;;;2.92;1.92;;;2.20;76.80;;;;;;5032969;28;20032;-68
2024/01/28 07:59:14;;;;;;;2.90;1.70;;;2.30;76.90;;;;;;5015588;28;20499;-68
2024/01/28 08:01:40;;;;;;;4.43;2.00;;;2.30;76.90;;;;;;5032625;28;20401;-68
2024/01/28 08:04:06;;;;;;;4.43;2.22;;;2.40;76.90;;;;;;5037327;28;20026;-68
2024/01/28 08:06:31;;;;;;;2.47;1.42;;;2.40;76.90;;;;;;5030953;28;20030;-65
2024/01/28 08:08:57;;;;;;;2.47;1.40;;;2.50;76.90;;;;;;5041890;28;20033;-65
2024/01/28 08:11:23;;;;;;;4.82;1.52;;;2.60;76.90;;;;;;5036355;28;20432;-65
2024/01/28 08:13:49;;;;;;;1.85;1.40;;;2.60;76.80;;;;;;5033621;28;20017;-65
2024/01/28 08:16:15;;;;;;;2.25;1.45;;;2.60;76.80;;;;;;5030546;28;20125;-68
2024/01/28 08:18:41;;;;;;;2.75;1.67;;;2.70;76.90;;;;;;5032540;28;20079;-68
2024/01/28 08:21:07;;;;;;;2.33;1.40;;;2.70;76.80;;;;;;5033905;28;20435;-68
2024/01/28 08:23:35;;;;;;;2.47;1.73;;;2.80;76.80;;;;;;5047567;28;20171;-68
2024/01/28 08:26:01;;;;;;;2.08;1.45;;;2.80;76.80;;;;;;5032424;28;20431;-68
2024/01/28 08:28:26;;;;;;;1.65;1.13;;;2.90;76.80;;;;;;5033090;28;20083;-68
2024/01/28 08:30:52;;;;;;;3.30;1.83;;;2.90;76.70;;;;;;5033175;28;20033;-68
2024/01/28 08:33:17;;;;;;;3.10;1.88;;;3.00;76.80;;;;;;5039073;28;20108;-65
2024/01/28 08:35:43;;;;;;;5.65;1.85;;;3.00;76.90;;;;;;5039259;28;20564;-65
2024/01/28 08:38:10;;;;;;;7.82;1.80;;;3.00;76.80;;;;;;5033061;28;20091;-65
2024/01/28 08:40:37;;;;;;;4.85;1.65;;;3.10;76.90;;;;;;5028589;28;20040;-65
2024/01/28 08:43:05;;;;;;;1.63;1.25;;;3.10;77.20;;;;;;5035858;28;20083;-65
2024/01/28 08:45:31;;;;;;;2.22;1.60;;;3.20;77.00;;;;;;5036261;28;20029;-65
2024/01/28 08:47:56;;;;;;;2.45;1.55;;;3.20;76.90;;;;;;5028322;28;20056;-65
2024/01/28 08:50:23;;;;;;;2.17;1.60;;;3.20;76.90;;;;;;5030393;28;20160;-65
2024/01/28 08:52:51;;;;;;;2.03;1.60;;;3.30;76.90;;;;;;5033142;28;20025;-65
2024/01/28 08:55:17;;;;;;;2.90;1.30;;;3.30;77.00;;;;;;5030803;28;20108;-65
2024/01/28 08:57:43;;;;;;;3.83;2.20;;;3.30;77.00;;;;;;5033179;28;20500;-64
2024/01/28 09:00:11;;;;;;;1.42;1.33;;;3.30;77.10;;;;;;5035746;28;20100;-65
2024/01/28 09:02:38;;;;;;;4.35;1.90;;;3.30;77.10;;;;;;5030719;28;20423;-64
2024/01/28 09:05:04;;;;;;;1.30;1.20;;;3.40;77.10;;;;;;5034468;28;20273;-65
2024/01/28 09:07:30;;;;;;;3.83;2.30;;;3.40;77.10;;;;;;5028501;28;20034;-65
2024/01/28 09:09:58;;;;;;;3.42;1.58;;;3.50;77.00;;;;;;5030948;28;20480;-64
2024/01/28 09:12:24;;;;;;;3.00;1.65;;;3.50;77.10;;;;;;5035775;28;20103;-65
2024/01/28 09:14:50;;;;;;;3.47;1.20;;;3.50;77.10;;;;;;5039533;28;20025;-65
2024/01/28 09:17:15;;;;;;;2.80;1.13;;;3.60;77.20;;;;;;5032465;28;20034;-66
2024/01/28 09:19:41;;;;;;;0.90;0.90;;;3.70;77.20;;;;;;5032415;28;20109;-65
2024/01/28 09:22:07;;;;;;;3.83;1.38;;;3.80;77.00;;;;;;5035788;28;20035;-63
2024/01/28 09:24:32;;;;;;;4.75;2.20;;;3.90;76.90;;;;;;5030910;28;20025;-67
2024/01/28 09:26:58;;;;;;;2.38;1.50;;;4.00;76.80;;;;;;5037468;28;20071;-65
2024/01/28 09:29:26;;;;;;;1.58;1.17;;;4.20;76.70;;;;;;5022207;28;20029;-66
2024/01/28 09:31:52;;;;;;;2.42;1.83;;;4.30;76.60;;;;;;5027979;28;20041;-67
2024/01/28 09:34:17;;;;;;;2.03;1.58;;;4.40;76.50;;;;;;5030851;28;20032;-67
2024/01/28 09:36:43;;;;;;;2.53;1.30;;;4.50;76.40;;;;;;5028879;28;20025;-65
2024/01/28 09:39:11;;;;;;;1.85;1.08;;;4.70;76.30;;;;;;5029659;28;20044;-65
2024/01/28 09:41:46;;;;;;;3.60;1.92;;;4.80;76.20;;;;;;5040111;28;20025;-65
2024/01/28 09:44:12;;;;;;;4.40;1.60;;;5.00;76.20;;;;;;5037877;28;20074;-65
2024/01/28 09:46:38;;;;;;;1.10;1.00;;;5.10;76.00;;;;;;5036284;28;20045;-65
2024/01/28 09:49:06;;;;;;;3.03;1.15;;;5.30;75.90;;;;;;5035131;28;20438;-65
2024/01/28 09:51:31;;;;;;;2.05;1.20;;;5.50;75.80;;;;;;5031510;28;20037;-65
2024/01/28 09:53:57;;;;;;;7.43;1.73;;;5.70;75.60;;;;;;5036584;28;20112;-66
2024/01/28 09:56:23;;;;;;;1.85;1.48;;;5.80;75.30;;;;;;5032864;28;20038;-65
2024/01/28 09:58:49;;;;;;;5.40;1.63;;;5.90;75.10;;;;;;5033397;28;20044;-65
2024/01/28 10:01:14;;;;;;;3.83;1.02;;;6.10;75.10;;;;;;5034432;28;20022;-65
2024/01/28 10:03:42;;;;;;;2.42;1.60;;;6.20;74.90;;;;;;5034977;28;20455;-65
2024/01/28 10:06:08;;;;;;;1.08;0.82;;;6.40;74.90;;;;;;5036682;28;20096;-66
2024/01/28 10:08:33;;;;;;;4.05;1.58;;;6.50;74.70;;;;;;5038741;28;20036;-67
2024/01/28 10:11:03;;;;;;;2.83;0.88;;;6.60;74.70;;;;;;5034052;28;20025;-67
2024/01/28 10:13:29;;;;;;;2.53;1.15;;;6.70;74.60;;;;;;5030933;28;20382;-65
2024/01/28 10:15:58;;;;;;;2.15;1.25;;;6.80;74.60;;;;;;5033857;28;20026;-65
2024/01/28 10:18:25;;;;;;;3.30;1.10;;;6.90;74.40;;;;;;5042462;28;20033;-66
2024/01/28 10:20:51;;;;;;;1.77;1.30;;;7.00;74.40;;;;;;5031138;28;20106;-66
2024/01/28 10:23:17;;;;;;;1.70;1.23;;;7.10;74.20;;;;;;5033763;28;20026;-66
2024/01/28 10:25:44;;;;;;;1.80;1.33;;;7.30;74.10;;;;;;5034821;28;20046;-66
2024/01/28 10:28:10;;;;;;;4.82;1.58;;;7.40;74.00;;;;;;5032171;28;20071;-66
2024/01/28 10:30:35;;;;;;;1.10;0.70;;;7.50;73.80;;;;;;4996064;28;20103;-66
2024/01/28 10:33:01;;;;;;;1.10;0.80;;;7.60;73.70;;;;;;5033467;28;20041;-67
2024/01/28 10:35:28;;;;;;;0.90;0.80;;;7.80;73.50;;;;;;5038901;28;20115;-67
2024/01/28 10:37:55;;;;;;;2.20;1.38;;;7.90;73.20;;;;;;5032159;28;20025;-67
2024/01/28 10:40:27;;;;;;;4.05;1.50;;;8.10;73.00;;;;;;5030149;28;20029;-67
2024/01/28 10:42:56;;;;;;;1.52;1.13;;;8.10;72.60;;;;;;5033153;28;20030;-67
2024/01/28 10:45:23;;;;;;;1.80;1.27;;;8.10;72.50;;;;;;5036451;28;20035;-68
2024/01/28 10:47:56;;;;;;;2.33;1.67;;;8.20;72.40;;;;;;5032467;28;20372;-67
2024/01/28 10:50:28;;;;;;;2.55;1.27;;;8.30;72.30;;;;;;5032363;28;20025;-68
2024/01/28 10:52:56;;;;;;;2.05;1.30;;;8.40;71.70;;;;;;5034553;28;20014;-67
2024/01/28 10:55:22;;;;;;;4.35;1.20;;;8.60;71.70;;;;;;5040299;28;20468;-67
2024/01/28 10:57:48;;;;;;;3.53;1.65;;;8.80;71.40;;;;;;5029829;28;20055;-67
2024/01/28 11:00:17;;;;;;;3.10;1.30;;;9.10;71.20;;;;;;5033119;28;20025;-66
2024/01/28 11:02:43;;;;;;;2.70;1.27;;;9.30;71.20;;;;;;5031695;28;20032;-67
2024/01/28 11:05:10;;;;;;;6.82;1.30;;;9.60;71.20;;;;;;5041377;28;20130;-66
2024/01/28 11:07:36;;;;;;;1.63;0.88;;;10.20;70.60;;;;;;5030475;28;20029;-67
2024/01/28 11:10:05;;;;;;;1.33;0.88;;;10.90;69.40;;;;;;5034383;28;20036;-68
2024/01/28 11:12:32;;;;;;;3.22;1.40;;;12.10;66.80;;;;;;5031614;28;20024;-68
2024/01/28 11:14:59;;;;;;;2.65;1.10;;;13.90;62.40;;;;;;5038218;28;20026;-67
2024/01/28 11:17:35;;;;;;;3.13;1.20;;;15.80;57.30;;;;;;5036884;28;20025;-66
2024/01/28 11:20:07;;;;;;;3.33;1.58;;;17.90;52.60;;;;;;5029430;28;20349;-66
2024/01/28 11:22:49;;;;;;;2.63;1.90;;;19.70;49.30;;;;;;5060593;28;20038;-67
2024/01/28 11:25:28;;;;;;;1.85;0.95;;;21.30;46.70;;;;;;5038163;28;20045;-67
2024/01/28 11:28:05;;;;;;;2.00;1.15;;;22.40;44.10;;;;;;5025652;28;20044;-67
2024/01/28 11:30:33;;;;;;;2.80;1.17;;;23.40;42.70;;;;;;5034343;28;20108;-69
2024/01/28 11:33:09;;;;;;;1.48;1.38;;;24.20;41.20;;;;;;5031379;28;20029;-69
2024/01/28 11:35:35;;;;;;;1.88;0.82;;;24.90;40.10;;;;;;5021206;28;20033;-69
2024/01/28 11:38:06;;;;;;;2.72;1.40;;;25.50;39.50;;;;;;5035901;28;20036;-68
2024/01/28 11:40:37;;;;;;;1.97;0.90;;;25.80;38.20;;;;;;5026615;28;20116;-71
2024/01/28 11:43:08;;;;;;;5.15;1.55;;;26.30;37.20;;;;;;5031511;28;20260;-69
2024/01/28 11:45:37;;;;;;;1.40;1.20;;;26.70;36.50;;;;;;5030906;28;20072;-67
2024/01/28 11:48:11;;;;;;;3.00;1.30;;;27.00;36.00;;;;;;5030201;28;20048;-68
2024/01/28 11:50:38;;;;;;;3.80;1.55;;;27.20;35.20;;;;;;5018460;28;20036;-67
2024/01/28 11:53:08;;;;;;;2.20;1.90;;;27.30;34.50;;;;;;5021707;28;20422;-67
2024/01/28 11:55:34;;;;;;;3.22;1.85;;;27.60;33.60;;;;;;5022907;28;20094;-69
2024/01/28 11:58:00;;;;;;;2.42;1.45;;;27.80;33.60;;;;;;5040537;28;20045;-68
2024/01/28 12:00:26;;;;;;;1.20;1.10;;;28.00;33.20;;;;;;5028217;28;20022;-69
2024/01/28 12:02:53;;;;;;;1.08;0.90;;;28.40;33.00;;;;;;5030777;28;20033;-69
2024/01/28 12:05:19;;;;;;;8.07;1.92;;;28.60;32.30;;;;;;5030178;28;20477;-69
2024/01/28 12:07:46;;;;;;;2.72;1.63;;;28.80;32.70;;;;;;5034972;28;20028;-69
2024/01/28 12:10:12;;;;;;;1.13;1.00;;;29.00;32.00;;;;;;5032094;28;20040;-69
2024/01/28 12:12:41;;;;;;;1.33;1.23;;;29.00;31.30;;;;;;5033464;28;20037;-69
2024/01/28 12:15:13;;;;;;;1.50;1.38;;;29.00;31.60;;;;;;5026072;28;20037;-69
2024/01/28 12:17:40;;;;;;;;;;;29.20;31.60;;;;;;5027860;28;20496;-69
2024/01/28 12:20:07;;;;;;;1.48;1.17;;;29.60;31.30;;;;;;5025966;28;19917;-69
2024/01/28 12:22:39;;;;;;;4.40;1.65;;;29.70;31.40;;;;;;5031823;28;20067;-69
2024/01/28 12:25:10;;;;;;;3.45;1.85;;;29.80;31.00;;;;;;5024773;28;20052;-69
2024/01/28 12:27:36;;;;;;;5.18;1.95;;;30.00;30.60;;;;;;5027738;28;20489;-69
2024/01/28 12:30:02;;;;;;;4.30;1.23;;;30.10;30.40;;;;;;5030563;28;20093;-69
2024/01/28 12:32:29;;;;;;;4.38;1.30;;;30.10;30.50;;;;;;5030749;28;20034;-69
2024/01/28 12:34:56;;;;;;;1.65;0.80;;;30.20;30.20;;;;;;5028693;28;20029;-69
2024/01/28 12:37:24;;;;;;;1.73;1.10;;;30.20;30.30;;;;;;5028885;28;20481;-69
2024/01/28 12:39:50;;;;;;;4.00;1.25;;;30.20;29.90;;;;;;5065576;28;20025;-69
2024/01/28 12:42:18;;;;;;;1.65;1.40;;;30.30;29.80;;;;;;5030613;28;20029;-69
2024/01/28 12:44:44;;;;;;;1.77;1.00;;;30.40;29.90;;;;;;5022310;28;20046;-68
2024/01/28 12:47:10;;;;;;;4.72;1.20;;;30.40;29.70;;;;;;5029975;28;20424;-69
2024/01/28 12:49:36;;;;;;;3.15;1.17;;;30.30;29.90;;;;;;5034535;28;20369;-69
2024/01/28 12:52:02;;;;;;;2.53;1.33;;;29.80;29.70;;;;;;5031292;28;20473;-67